createdAt,value
2022-12-23T00:00:58.911Z,8.78
2022-12-23T00:03:30.379Z,8.75
2022-12-23T00:06:01.256Z,8.71
2022-12-23T00:08:31.792Z,8.68
2022-12-23T00:11:02.322Z,8.67
2022-12-23T00:13:50.498Z,8.73
2022-12-23T00:16:21.460Z,8.75
2022-12-23T00:18:52.019Z,8.76
2022-12-23T00:21:23.582Z,8.76
2022-12-23T00:23:54.388Z,8.74
2022-12-23T00:26:27.229Z,8.71
2022-12-23T00:28:59.497Z,8.66
2022-12-23T00:31:28.507Z,8.60
2022-12-23T00:33:59.111Z,8.54
2022-12-23T00:36:31.323Z,8.48
2022-12-23T00:39:19.830Z,8.43
2022-12-23T00:42:07.980Z,8.38
2022-12-23T00:44:38.462Z,8.38
2022-12-23T00:47:28.995Z,8.46
2022-12-23T00:49:59.451Z,8.51
2022-12-23T00:52:29.915Z,8.55
2022-12-23T00:55:00.539Z,8.60
2022-12-23T00:57:31.000Z,8.61
2022-12-23T01:00:01.477Z,8.64
2022-12-23T01:02:49.877Z,8.64
2022-12-23T01:05:37.558Z,8.65
2022-12-23T01:08:10.539Z,8.65
2022-12-23T01:10:42.015Z,8.63
2022-12-23T01:13:12.497Z,8.62
2022-12-23T01:15:42.946Z,8.61
2022-12-23T01:18:13.377Z,8.60
2022-12-23T01:20:43.859Z,8.58
2022-12-23T01:23:14.320Z,8.57
2022-12-23T01:25:44.768Z,8.62
2022-12-23T01:28:15.233Z,8.64
2022-12-23T01:30:45.710Z,8.62
2022-12-23T01:33:16.145Z,8.58
2022-12-23T01:35:46.678Z,8.53
2022-12-23T01:38:17.147Z,8.47
2022-12-23T01:40:48.318Z,8.41
2022-12-23T01:43:21.503Z,8.33
2022-12-23T01:45:52.479Z,8.26
2022-12-23T01:48:25.586Z,8.19
2022-12-23T01:51:01.290Z,8.12
2022-12-23T01:53:35.692Z,8.04
2022-12-23T01:56:11.373Z,7.98
2022-12-23T01:58:47.508Z,7.98
2022-12-23T02:01:36.048Z,7.94
2022-12-23T02:04:09.922Z,7.92
2022-12-23T02:07:00.694Z,7.87
2022-12-23T02:09:33.327Z,7.82
2022-12-23T02:12:31.073Z,7.77
2022-12-23T02:15:38.921Z,7.73
2022-12-23T02:18:31.751Z,7.67
2022-12-23T02:21:18.173Z,7.62
2022-12-23T02:24:28.723Z,7.58
2022-12-23T02:27:20.090Z,7.52
2022-12-23T02:30:14.486Z,7.47
2022-12-23T02:32:58.959Z,7.40
2022-12-23T02:35:33.150Z,7.33
2022-12-23T02:38:11.561Z,7.30
2022-12-23T02:40:52.026Z,7.33
2022-12-23T02:43:32.479Z,7.34
2022-12-23T02:46:10.318Z,7.37
2022-12-23T02:48:45.410Z,7.37
2022-12-23T02:51:17.204Z,7.37
2022-12-23T02:53:52.141Z,7.36
2022-12-23T02:56:24.899Z,7.34
2022-12-23T02:59:00.059Z,7.32
2022-12-23T03:01:33.551Z,7.30
2022-12-23T03:04:06.061Z,7.27
2022-12-23T03:06:41.035Z,7.24
2022-12-23T03:09:17.296Z,7.21
2022-12-23T03:11:55.817Z,7.21
2022-12-23T03:14:44.277Z,7.21
2022-12-23T03:17:32.274Z,7.20
2022-12-23T03:20:10.830Z,7.19
2022-12-23T03:22:48.112Z,7.19
2022-12-23T03:25:24.092Z,7.20
2022-12-23T03:28:00.744Z,7.27
2022-12-23T03:30:34.135Z,7.31
2022-12-23T03:33:09.068Z,7.37
2022-12-23T03:35:44.933Z,7.42
2022-12-23T03:38:19.557Z,7.44
2022-12-23T03:40:55.560Z,7.45
2022-12-23T03:43:29.835Z,7.46
2022-12-23T03:46:04.672Z,7.46
2022-12-23T03:48:38.756Z,7.46
2022-12-23T03:51:15.774Z,7.47
2022-12-23T03:53:49.771Z,7.47
2022-12-23T03:56:27.148Z,7.47
2022-12-23T03:59:01.888Z,7.47
2022-12-23T04:01:44.020Z,7.46
2022-12-23T04:04:24.311Z,7.43
2022-12-23T04:07:00.532Z,7.42
2022-12-23T04:09:31.477Z,7.41
2022-12-23T04:12:02.085Z,7.47
2022-12-23T04:14:35.177Z,7.52
2022-12-23T04:17:05.649Z,7.55
2022-12-23T04:19:36.129Z,7.58
2022-12-23T04:22:06.667Z,7.60
2022-12-23T04:24:37.218Z,7.63
2022-12-23T04:27:08.088Z,7.65
2022-12-23T04:29:38.766Z,7.66
2022-12-23T04:32:09.530Z,7.67
2022-12-23T04:34:39.939Z,7.66
2022-12-23T04:37:11.173Z,7.65
2022-12-23T04:39:41.624Z,7.66
2022-12-23T04:42:12.135Z,7.66
2022-12-23T04:44:42.557Z,7.66
2022-12-23T04:47:13.085Z,7.66
2022-12-23T04:49:43.718Z,7.66
2022-12-23T04:52:14.377Z,7.67
2022-12-23T04:54:46.442Z,7.73
2022-12-23T04:57:16.086Z,7.76
2022-12-23T04:59:46.754Z,7.78
2022-12-23T05:02:17.299Z,7.82
2022-12-23T05:04:47.892Z,7.85
2022-12-23T05:07:18.348Z,7.90
2022-12-23T05:09:48.761Z,7.93
2022-12-23T05:12:19.921Z,7.97
2022-12-23T05:14:50.374Z,7.98
2022-12-23T05:17:20.980Z,7.98
2022-12-23T05:19:51.410Z,7.99
2022-12-23T05:22:21.821Z,7.98
2022-12-23T05:24:52.270Z,7.98
2022-12-23T05:27:23.108Z,7.97
2022-12-23T05:29:53.558Z,7.96
2022-12-23T05:32:24.004Z,7.95
2022-12-23T05:34:56.444Z,8.02
2022-12-23T05:37:27.162Z,8.07
2022-12-23T05:39:57.609Z,8.11
2022-12-23T05:42:28.106Z,8.15
2022-12-23T05:44:58.553Z,8.18
2022-12-23T05:47:29.025Z,8.19
2022-12-23T05:49:59.461Z,8.21
2022-12-23T05:52:29.983Z,8.21
2022-12-23T05:55:00.470Z,8.21
2022-12-23T05:57:32.035Z,8.22
2022-12-23T06:00:02.629Z,8.20
2022-12-23T06:02:45.121Z,8.19
2022-12-23T06:05:18.031Z,8.18
2022-12-23T06:07:48.477Z,8.16
2022-12-23T06:10:19.309Z,8.17
2022-12-23T06:12:49.875Z,8.24
2022-12-23T06:15:20.532Z,8.28
2022-12-23T06:17:51.020Z,8.33
2022-12-23T06:20:21.620Z,8.38
2022-12-23T06:22:52.164Z,8.40
2022-12-23T06:25:22.996Z,8.44
2022-12-23T06:27:53.436Z,8.48
2022-12-23T06:30:23.954Z,8.51
2022-12-23T06:32:54.401Z,8.53
2022-12-23T06:35:25.118Z,8.55
2022-12-23T06:37:56.369Z,8.56
2022-12-23T06:40:29.232Z,8.58
2022-12-23T06:42:59.807Z,8.63
2022-12-23T06:45:30.690Z,8.72
2022-12-23T06:48:01.127Z,8.79
2022-12-23T06:50:31.521Z,8.87
2022-12-23T06:53:02.205Z,8.93
2022-12-23T06:55:33.754Z,8.93
2022-12-23T06:58:04.208Z,8.95
2022-12-23T07:00:34.877Z,8.93
2022-12-23T07:03:05.475Z,8.91
2022-12-23T07:05:37.820Z,8.89
2022-12-23T07:08:08.851Z,8.86
2022-12-23T07:10:39.393Z,8.83
2022-12-23T07:13:10.132Z,8.79
2022-12-23T07:15:40.876Z,8.75
2022-12-23T07:18:11.367Z,8.78
2022-12-23T07:20:41.781Z,8.79
2022-12-23T07:23:12.235Z,8.81
2022-12-23T07:25:42.686Z,8.83
2022-12-23T07:28:13.131Z,8.82
2022-12-23T07:30:44.185Z,8.81
2022-12-23T07:33:14.596Z,8.79
2022-12-23T07:35:45.078Z,8.77
2022-12-23T07:38:15.508Z,8.74
2022-12-23T07:40:49.261Z,8.72
2022-12-23T07:43:19.851Z,8.69
2022-12-23T07:45:57.318Z,8.67
2022-12-23T07:48:30.647Z,8.67
2022-12-23T07:51:04.614Z,8.74
2022-12-23T07:53:35.100Z,8.78
2022-12-23T07:56:06.309Z,8.82
2022-12-23T07:58:36.988Z,8.85
2022-12-23T08:01:09.005Z,8.88
2022-12-23T08:03:39.805Z,8.90
2022-12-23T08:06:12.792Z,8.92
2022-12-23T08:08:44.646Z,8.94
2022-12-23T08:11:16.778Z,8.96
2022-12-23T08:13:48.326Z,8.95
2022-12-23T08:16:18.810Z,8.93
2022-12-23T08:18:49.336Z,8.91
2022-12-23T08:21:21.039Z,8.89
2022-12-23T08:23:52.327Z,8.93
2022-12-23T08:26:25.173Z,8.96
2022-12-23T08:28:56.018Z,9.00
2022-12-23T08:31:28.802Z,9.05
2022-12-23T08:34:00.241Z,9.08
2022-12-23T08:36:32.484Z,9.12
2022-12-23T08:39:03.188Z,9.14
2022-12-23T08:41:36.918Z,9.14
2022-12-23T08:44:08.289Z,9.15
2022-12-23T08:46:39.807Z,9.14
2022-12-23T08:49:10.856Z,9.12
2022-12-23T08:51:42.755Z,9.11
2022-12-23T08:54:13.796Z,9.10
2022-12-23T08:56:44.701Z,9.09
2022-12-23T08:59:19.535Z,9.11
2022-12-23T09:01:50.907Z,9.20
2022-12-23T09:04:21.502Z,9.25
2022-12-23T09:06:52.272Z,9.29
2022-12-23T09:09:22.896Z,9.32
2022-12-23T09:11:53.379Z,9.36
2022-12-23T09:14:23.961Z,9.39
2022-12-23T09:16:54.590Z,9.42
2022-12-23T09:19:25.121Z,9.45
2022-12-23T09:21:55.613Z,9.46
2022-12-23T09:24:26.079Z,9.47
2022-12-23T09:26:56.620Z,9.46
2022-12-23T09:29:27.173Z,9.47
2022-12-23T09:31:57.814Z,9.55
2022-12-23T09:34:28.468Z,9.60
2022-12-23T09:36:59.041Z,9.63
2022-12-23T09:39:29.474Z,9.63
2022-12-23T09:42:07.510Z,9.63
2022-12-23T09:44:47.510Z,9.63
2022-12-23T09:47:23.140Z,9.61
2022-12-23T09:49:56.489Z,9.61
2022-12-23T09:52:35.194Z,9.61
2022-12-23T09:55:10.341Z,9.60
2022-12-23T09:57:49.437Z,9.59
2022-12-23T10:00:22.709Z,9.59
2022-12-23T10:03:15.436Z,9.65
2022-12-23T10:05:58.213Z,9.67
2022-12-23T10:08:34.380Z,9.67
2022-12-23T10:11:11.081Z,9.68
2022-12-23T10:13:46.350Z,9.71
2022-12-23T10:16:20.363Z,9.75
2022-12-23T10:18:58.818Z,9.78
2022-12-23T10:21:36.308Z,9.80
2022-12-23T10:24:14.229Z,9.81
2022-12-23T10:26:52.975Z,9.85
2022-12-23T10:29:24.900Z,9.94
2022-12-23T10:32:08.106Z,9.96
2022-12-23T10:34:49.001Z,9.99
2022-12-23T10:37:29.425Z,9.98
2022-12-23T10:40:12.695Z,9.96
2022-12-23T10:42:54.188Z,9.92
2022-12-23T10:45:35.774Z,9.88
2022-12-23T10:48:17.252Z,9.87
2022-12-23T10:50:56.823Z,9.88
2022-12-23T10:53:36.977Z,9.96
2022-12-23T10:56:09.444Z,10.00
2022-12-23T10:58:44.463Z,10.06
2022-12-23T11:01:25.986Z,10.10
2022-12-23T11:04:07.572Z,10.14
2022-12-23T11:06:42.965Z,10.16
2022-12-23T11:09:20.385Z,10.16
2022-12-23T11:12:03.052Z,10.15
2022-12-23T11:14:41.651Z,10.14
2022-12-23T11:17:23.827Z,10.13
2022-12-23T11:20:13.516Z,10.13
2022-12-23T11:22:52.193Z,10.19
2022-12-23T11:25:37.278Z,10.23
2022-12-23T11:28:08.726Z,10.24
2022-12-23T11:30:55.426Z,10.23
2022-12-23T11:33:29.993Z,10.21
2022-12-23T11:36:07.427Z,10.20
2022-12-23T11:38:48.308Z,10.19
2022-12-23T11:41:25.008Z,10.16
2022-12-23T11:44:01.058Z,10.12
2022-12-23T11:46:34.251Z,10.14
2022-12-23T11:49:17.085Z,10.19
2022-12-23T11:51:49.786Z,10.23
2022-12-23T11:54:23.356Z,10.31
2022-12-23T11:56:56.014Z,10.35
2022-12-23T11:59:34.001Z,10.37
2022-12-23T12:02:12.737Z,10.40
2022-12-23T12:04:43.904Z,10.42
2022-12-23T12:07:20.477Z,10.43
2022-12-23T12:09:51.513Z,10.46
2022-12-23T12:12:24.095Z,10.49
2022-12-23T12:14:56.469Z,10.50
2022-12-23T12:17:33.968Z,10.57
2022-12-23T12:20:11.866Z,10.63
2022-12-23T12:22:46.882Z,10.67
2022-12-23T12:25:23.735Z,10.67
2022-12-23T12:28:08.354Z,10.68
2022-12-23T12:30:45.273Z,10.69
2022-12-23T12:33:20.375Z,10.69
2022-12-23T12:36:00.251Z,10.66
2022-12-23T12:38:37.156Z,10.63
2022-12-23T12:41:17.443Z,10.60
2022-12-23T12:44:01.700Z,10.59
2022-12-23T12:46:35.206Z,10.63
2022-12-23T12:49:15.662Z,10.64
2022-12-23T12:51:52.523Z,10.67
2022-12-23T12:54:26.744Z,10.68
2022-12-23T12:56:59.018Z,10.67
2022-12-23T12:59:35.803Z,10.65
2022-12-23T13:02:38.108Z,10.63
2022-12-23T13:05:35.021Z,10.61
2022-12-23T13:08:20.201Z,10.62
2022-12-23T13:10:55.113Z,10.63
2022-12-23T13:13:41.203Z,10.63
2022-12-23T13:16:22.525Z,10.69
2022-12-23T13:19:00.835Z,10.72
2022-12-23T13:21:38.534Z,10.74
2022-12-23T13:24:19.906Z,10.74
2022-12-23T13:27:00.554Z,10.75
2022-12-23T13:29:56.128Z,10.76
2022-12-23T13:32:42.061Z,10.77
2022-12-23T13:35:23.923Z,10.77
2022-12-23T13:38:01.492Z,10.78
2022-12-23T13:40:39.988Z,10.82
2022-12-23T13:43:13.161Z,10.92
2022-12-23T13:45:45.772Z,10.94
2022-12-23T13:48:33.624Z,10.97
2022-12-23T13:51:11.488Z,10.98
2022-12-23T13:54:04.561Z,10.96
2022-12-23T13:56:44.201Z,10.94
2022-12-23T13:59:16.668Z,10.90
2022-12-23T14:01:49.907Z,10.87
2022-12-23T14:04:36.976Z,10.83
2022-12-23T14:07:19.359Z,10.79
2022-12-23T14:09:54.806Z,10.78
2022-12-23T14:12:30.727Z,10.80
2022-12-23T14:15:38.130Z,10.81
2022-12-23T14:18:28.266Z,10.81
2022-12-23T14:21:09.214Z,10.83
2022-12-23T14:23:53.281Z,10.83
2022-12-23T14:26:40.511Z,10.82
2022-12-23T14:29:30.077Z,10.81
2022-12-23T14:32:00.915Z,10.81
2022-12-23T14:34:34.248Z,10.83
2022-12-23T14:37:35.460Z,10.90
2022-12-23T14:40:36.779Z,10.94
2022-12-23T14:43:32.040Z,10.94
2022-12-23T14:46:05.893Z,10.92
2022-12-23T14:52:27.711Z,10.86
2022-12-23T14:55:30.178Z,10.82
2022-12-23T14:58:10.134Z,10.77
2022-12-23T15:00:51.314Z,10.73
2022-12-23T15:03:23.705Z,10.69
2022-12-23T15:06:08.148Z,10.67
2022-12-23T15:08:42.305Z,10.70
2022-12-23T15:11:22.742Z,10.71
2022-12-23T15:13:56.102Z,10.71
2022-12-23T15:16:33.553Z,10.71
2022-12-23T15:19:17.480Z,10.72
2022-12-23T15:21:54.455Z,10.72
2022-12-23T15:24:30.974Z,10.73
2022-12-23T15:27:25.866Z,10.72
2022-12-23T15:29:54.241Z,10.68
2022-12-23T15:32:26.585Z,10.65
2022-12-23T15:35:03.030Z,10.66
2022-12-23T15:37:34.914Z,10.64
2022-12-23T15:40:12.615Z,10.64
2022-12-23T15:42:49.785Z,10.62
2022-12-23T15:45:33.863Z,10.62
2022-12-23T15:48:06.155Z,10.62
2022-12-23T15:50:42.477Z,10.59
2022-12-23T15:53:16.958Z,10.57
2022-12-23T15:55:48.530Z,10.56
2022-12-23T15:58:24.538Z,10.55
2022-12-23T16:00:58.044Z,10.60
2022-12-23T16:03:35.307Z,10.62
2022-12-23T16:06:18.788Z,10.63
2022-12-23T16:08:58.746Z,10.64
2022-12-23T16:11:42.382Z,10.64
2022-12-23T16:14:35.306Z,10.63
2022-12-23T16:17:22.639Z,10.61
2022-12-23T16:19:55.024Z,10.58
2022-12-23T16:22:34.376Z,10.57
2022-12-23T16:25:13.454Z,10.57
2022-12-23T16:27:47.935Z,10.63
2022-12-23T16:30:22.695Z,10.66
2022-12-23T16:32:55.950Z,10.67
2022-12-23T16:35:34.655Z,10.66
2022-12-23T16:38:18.202Z,10.64
2022-12-23T16:40:51.309Z,10.61
2022-12-23T16:43:23.069Z,10.58
2022-12-23T16:45:56.129Z,10.54
2022-12-23T16:48:31.596Z,10.52
2022-12-23T16:51:04.876Z,10.50
2022-12-23T16:53:35.378Z,10.54
2022-12-23T16:56:11.204Z,10.57
2022-12-23T16:58:41.890Z,10.59
2022-12-23T17:01:18.175Z,10.58
2022-12-23T17:03:48.806Z,10.58
2022-12-23T17:06:20.440Z,10.57
2022-12-23T17:08:53.230Z,10.56
2022-12-23T17:11:27.752Z,10.55
2022-12-23T17:14:04.089Z,10.55
2022-12-23T17:16:36.377Z,10.57
2022-12-23T17:19:07.320Z,10.63
2022-12-23T17:21:39.663Z,10.64
2022-12-23T17:24:15.243Z,10.65
2022-12-23T17:26:45.693Z,10.63
2022-12-23T17:29:16.508Z,10.64
2022-12-23T17:31:48.733Z,10.64
2022-12-23T17:34:21.566Z,10.64
2022-12-23T17:36:52.894Z,10.63
2022-12-23T17:39:24.093Z,10.61
2022-12-23T17:41:54.523Z,10.59
2022-12-23T17:44:25.011Z,10.62
2022-12-23T17:46:55.528Z,10.63
2022-12-23T17:49:25.974Z,10.63
2022-12-23T17:51:56.603Z,10.62
2022-12-23T17:54:27.579Z,10.63
2022-12-23T17:56:58.415Z,10.61
2022-12-23T17:59:28.919Z,10.59
2022-12-23T18:01:59.417Z,10.55
2022-12-23T18:04:29.971Z,10.50
2022-12-23T18:07:00.600Z,10.47
2022-12-23T18:09:31.066Z,10.44
2022-12-23T18:12:01.868Z,10.48
2022-12-23T18:14:32.509Z,10.48
2022-12-23T18:17:02.979Z,10.48
2022-12-23T18:19:33.931Z,10.46
2022-12-23T18:22:04.495Z,10.44
2022-12-23T18:24:34.952Z,10.43
2022-12-23T18:27:07.498Z,10.40
2022-12-23T18:29:37.929Z,10.37
2022-12-23T18:32:14.192Z,10.34
2022-12-23T18:34:44.724Z,10.30
2022-12-23T18:37:15.195Z,10.26
2022-12-23T18:39:46.073Z,10.31
2022-12-23T18:42:18.847Z,10.33
2022-12-23T18:44:50.165Z,10.34
2022-12-23T18:47:20.620Z,10.34
2022-12-23T18:49:51.095Z,10.32
2022-12-23T18:52:21.684Z,10.29
2022-12-23T18:54:53.487Z,10.26
2022-12-23T18:57:24.201Z,10.24
2022-12-23T18:59:55.310Z,10.21
2022-12-23T19:02:25.868Z,10.20
2022-12-23T19:04:56.343Z,10.17
2022-12-23T19:07:26.844Z,10.17
2022-12-23T19:09:57.767Z,10.21
2022-12-23T19:12:28.240Z,10.24
2022-12-23T19:14:58.661Z,10.25
2022-12-23T19:17:29.768Z,10.24
2022-12-23T19:20:00.425Z,10.23
2022-12-23T19:22:30.875Z,10.22
2022-12-23T19:25:05.913Z,10.20
2022-12-23T19:27:39.450Z,10.18
2022-12-23T19:30:15.627Z,10.15
2022-12-23T19:32:46.438Z,10.13
2022-12-23T19:35:17.405Z,10.09
2022-12-23T19:37:47.911Z,10.07
2022-12-23T19:40:18.448Z,10.10
2022-12-23T19:42:49.317Z,10.11
2022-12-23T19:45:19.949Z,10.12
2022-12-23T19:47:50.409Z,10.12
2022-12-23T19:50:22.378Z,10.11
2022-12-23T19:52:54.821Z,10.11
2022-12-23T19:55:25.387Z,10.10
2022-12-23T19:57:55.859Z,10.08
2022-12-23T20:00:26.496Z,10.06
2022-12-23T20:02:59.162Z,10.03
2022-12-23T20:05:30.224Z,10.00
2022-12-23T20:08:01.066Z,9.98
2022-12-23T20:10:31.564Z,10.01
2022-12-23T20:13:02.043Z,10.02
2022-12-23T20:15:32.569Z,10.03
2022-12-23T20:18:03.283Z,10.03
2022-12-23T20:20:34.198Z,10.01
2022-12-23T20:23:04.892Z,10.00
2022-12-23T20:25:35.380Z,9.98
2022-12-23T20:28:06.107Z,9.96
2022-12-23T20:30:36.576Z,9.93
2022-12-23T20:33:07.168Z,9.89
2022-12-23T20:35:38.101Z,9.86
2022-12-23T20:38:08.946Z,9.85
2022-12-23T20:40:39.478Z,9.89
2022-12-23T20:43:15.087Z,9.92
2022-12-23T20:45:46.369Z,9.93
2022-12-23T20:48:18.218Z,9.94
2022-12-23T20:50:48.862Z,9.94
2022-12-23T20:53:19.277Z,9.93
2022-12-23T20:55:49.766Z,9.92
2022-12-23T20:58:37.963Z,9.91
2022-12-23T21:01:13.340Z,9.89
2022-12-23T21:03:44.258Z,9.87
2022-12-23T21:06:14.682Z,9.85
2022-12-23T21:08:45.320Z,9.84
2022-12-23T21:11:16.210Z,9.88
2022-12-23T21:13:49.802Z,9.90
2022-12-23T21:16:20.648Z,9.93
2022-12-23T21:18:53.294Z,9.92
2022-12-23T21:21:26.519Z,9.91
2022-12-23T21:24:00.060Z,9.91
2022-12-23T21:26:32.024Z,9.91
2022-12-23T21:29:03.993Z,9.88
2022-12-23T21:31:36.794Z,9.86
2022-12-23T21:34:07.932Z,9.83
2022-12-23T21:36:40.171Z,9.80
2022-12-23T21:39:14.608Z,9.79
2022-12-23T21:41:46.036Z,9.82
2022-12-23T21:44:16.673Z,9.85
2022-12-23T21:46:47.288Z,9.85
2022-12-23T21:49:18.067Z,9.85
2022-12-23T21:51:48.686Z,9.85
2022-12-23T21:54:19.215Z,9.85
2022-12-23T21:56:49.652Z,9.83
2022-12-23T21:59:20.168Z,9.81
2022-12-23T22:01:51.240Z,9.79
2022-12-23T22:04:21.839Z,9.76
2022-12-23T22:06:52.389Z,9.75
2022-12-23T22:09:22.831Z,9.79
2022-12-23T22:11:53.266Z,9.82
2022-12-23T22:14:23.693Z,9.83
2022-12-23T22:16:54.247Z,9.85
2022-12-23T22:19:24.750Z,9.86
2022-12-23T22:21:55.246Z,9.86
2022-12-23T22:24:25.772Z,9.87
2022-12-23T22:26:56.195Z,9.86
2022-12-23T22:29:26.636Z,9.84
2022-12-23T22:31:57.205Z,9.84
2022-12-23T22:34:27.735Z,9.82
2022-12-23T22:36:58.153Z,9.81
2022-12-23T22:39:28.922Z,9.80
2022-12-23T22:41:59.344Z,9.85
2022-12-23T22:44:29.792Z,9.86
2022-12-23T22:47:00.233Z,9.88
2022-12-23T22:49:30.768Z,9.89
2022-12-23T22:52:01.302Z,9.89
2022-12-23T22:54:31.717Z,9.91
2022-12-23T22:57:02.196Z,9.92
2022-12-23T22:59:32.714Z,9.89
2022-12-23T23:02:03.239Z,9.87
2022-12-23T23:04:33.805Z,9.85
2022-12-23T23:07:04.471Z,9.80
2022-12-23T23:09:34.995Z,9.77
2022-12-23T23:12:05.739Z,9.82
2022-12-23T23:14:50.200Z,9.84
2022-12-23T23:17:20.859Z,9.86
2022-12-23T23:19:51.661Z,9.84
2022-12-23T23:22:23.838Z,9.83
2022-12-23T23:24:53.031Z,9.81
2022-12-23T23:27:23.514Z,9.79
2022-12-23T23:29:54.001Z,9.77
2022-12-23T23:32:24.542Z,9.73
2022-12-23T23:34:55.141Z,9.70
2022-12-23T23:37:25.574Z,9.69
2022-12-23T23:39:56.030Z,9.71
2022-12-23T23:42:26.435Z,9.72
2022-12-23T23:44:56.907Z,9.72
2022-12-23T23:47:27.366Z,9.72
2022-12-23T23:49:57.819Z,9.71
2022-12-23T23:52:28.840Z,9.69
2022-12-23T23:54:59.300Z,9.67
2022-12-23T23:57:30.128Z,9.67
